createdAt,value
2023-02-01T06:02:33.733Z,99936.00
2023-02-01T06:05:00.318Z,99929.88
2023-02-01T06:07:29.389Z,99921.91
2023-02-01T06:09:56.841Z,99939.44
2023-02-01T06:12:23.427Z,99939.47
2023-02-01T06:14:50.736Z,99928.88
2023-02-01T06:17:17.596Z,99925.31
2023-02-01T06:19:46.058Z,99916.56
2023-02-01T06:22:12.688Z,99908.59
2023-02-01T06:24:39.881Z,99904.22
2023-02-01T06:27:06.439Z,99925.25
2023-02-01T06:29:34.428Z,99933.16
2023-02-01T06:32:01.139Z,99942.81
2023-02-01T06:34:28.419Z,99947.19
2023-02-01T06:36:55.901Z,99955.06
2023-02-01T06:39:23.057Z,99954.19
2023-02-01T06:41:50.192Z,99952.41
2023-02-01T06:44:18.011Z,99948.06
2023-02-01T06:46:44.826Z,99946.28
2023-02-01T06:49:12.084Z,99950.63
2023-02-01T06:51:38.764Z,99953.28
2023-02-01T06:54:06.003Z,99947.13
2023-02-01T06:56:32.599Z,99957.69
2023-02-01T06:58:59.844Z,99954.25
2023-02-01T07:01:27.153Z,99963.75
2023-02-01T07:03:54.461Z,99965.47
2023-02-01T07:06:21.083Z,99978.72
2023-02-01T07:08:48.591Z,99976.03
2023-02-01T07:11:16.944Z,99976.03
2023-02-01T07:13:44.433Z,99968.97
2023-02-01T07:16:17.411Z,99970.69
2023-02-01T07:18:45.259Z,99966.28
2023-02-01T07:21:12.378Z,99969.78
2023-02-01T07:23:39.914Z,99980.38
2023-02-01T07:26:08.246Z,99998.81
2023-02-01T07:28:37.270Z,100004.09
2023-02-01T07:31:09.410Z,99985.63
2023-02-01T07:33:36.989Z,99982.16
2023-02-01T07:36:05.961Z,99997.91
2023-02-01T07:38:33.651Z,99995.34
2023-02-01T07:41:02.114Z,100010.22
2023-02-01T07:43:29.630Z,100019.81
2023-02-01T07:45:57.222Z,100006.63
2023-02-01T07:48:25.956Z,99995.34
2023-02-01T07:51:19.558Z,100005.75
2023-02-01T07:53:46.659Z,100008.38
2023-02-01T07:56:19.355Z,100021.53
2023-02-01T07:58:55.870Z,100018.06
2023-02-01T08:01:25.728Z,100032.91
2023-02-01T08:03:55.708Z,100019.81
2023-02-01T08:06:23.180Z,100013.72
2023-02-01T08:08:51.241Z,100023.34
2023-02-01T08:11:19.182Z,100027.72
2023-02-01T08:13:46.169Z,100030.41
2023-02-01T08:16:15.168Z,100023.34
2023-02-01T08:18:42.575Z,100026.78
2023-02-01T08:21:11.780Z,100032.00
2023-02-01T08:23:39.588Z,100035.50
2023-02-01T08:26:16.560Z,100034.59
2023-02-01T08:28:52.591Z,100032.84
2023-02-01T08:31:22.200Z,100031.94
2023-02-01T08:33:52.759Z,100029.22
2023-02-01T08:36:20.431Z,100024.72
2023-02-01T08:38:48.079Z,100022.00
2023-02-01T08:41:19.120Z,100029.09
2023-02-01T08:43:46.718Z,100036.09
2023-02-01T08:46:13.887Z,100019.41
2023-02-01T08:48:41.179Z,100021.06
2023-02-01T08:51:12.507Z,100029.00
2023-02-01T08:53:42.525Z,100032.47
2023-02-01T08:56:13.917Z,100025.47
2023-02-01T08:58:41.602Z,100023.69
2023-02-01T09:01:11.909Z,100027.13
2023-02-01T09:03:39.508Z,100034.06
2023-02-01T09:06:11.903Z,100033.03
2023-02-01T09:08:40.974Z,100021.59
2023-02-01T09:11:13.932Z,100020.75
2023-02-01T09:13:41.359Z,100035.59
2023-02-01T09:16:08.043Z,100024.91
2023-02-01T09:18:35.421Z,100008.13
2023-02-01T09:21:07.881Z,100016.03
2023-02-01T09:23:35.639Z,100010.75
2023-02-01T09:26:06.636Z,100008.81
2023-02-01T09:28:36.215Z,100006.13
2023-02-01T09:31:05.475Z,100014.97
2023-02-01T09:33:32.743Z,100008.91
2023-02-01T09:36:01.918Z,100023.75
2023-02-01T09:38:28.889Z,100007.91
2023-02-01T09:40:57.346Z,100001.75
2023-02-01T09:43:39.751Z,100007.84
2023-02-01T09:46:24.345Z,100010.47
2023-02-01T09:48:55.081Z,100000.63
2023-02-01T09:51:26.965Z,100006.06
2023-02-01T09:54:04.132Z,100007.84
2023-02-01T09:56:56.236Z,100006.06
2023-02-01T09:59:44.905Z,100013.06
2023-02-01T10:02:20.330Z,100019.16
2023-02-01T10:04:48.832Z,100002.41
2023-02-01T10:07:34.148Z,100011.16
2023-02-01T10:10:10.964Z,100002.34
2023-02-01T10:12:43.543Z,100010.09
2023-02-01T10:15:31.839Z,100007.38
2023-02-01T10:18:06.209Z,99998.38
2023-02-01T10:20:48.645Z,99989.53
2023-02-01T10:23:34.881Z,99985.00
2023-02-01T10:26:22.248Z,99991.25
2023-02-01T10:28:54.905Z,99983.06
2023-02-01T10:40:24.806Z,99994.56
2023-02-01T10:42:58.844Z,99978.81
2023-02-01T10:45:28.980Z,99991.22
2023-02-01T10:47:58.465Z,99986.00
2023-02-01T10:50:41.719Z,99977.22
2023-02-01T10:53:23.458Z,99992.06
2023-02-01T10:55:55.316Z,99979.69
2023-02-01T10:58:33.526Z,99992.84
2023-02-01T11:01:05.578Z,99989.25
2023-02-01T11:03:37.201Z,99982.13
2023-02-01T11:06:22.609Z,99976.81
2023-02-01T11:08:52.216Z,99966.34
2023-02-01T11:11:21.003Z,99966.44
2023-02-01T11:14:11.579Z,99958.56
2023-02-01T11:16:39.915Z,99956.78
2023-02-01T11:19:07.569Z,99950.59
2023-02-01T11:21:35.610Z,99951.50
2023-02-01T11:24:06.358Z,99944.44
2023-02-01T11:26:34.177Z,99937.47
2023-02-01T11:29:05.263Z,99940.06
2023-02-01T11:31:35.111Z,99922.50
2023-02-01T11:34:24.243Z,99923.22
2023-02-01T11:36:52.581Z,99916.16
2023-02-01T11:39:25.957Z,99920.66
2023-02-01T11:42:17.262Z,99909.22
2023-02-01T11:44:46.319Z,99906.66
2023-02-01T11:47:25.838Z,99908.47
2023-02-01T11:49:59.701Z,99895.34
2023-02-01T11:52:39.075Z,99889.13
2023-02-01T11:55:48.456Z,99894.41
2023-02-01T11:58:36.807Z,99877.81
2023-02-01T12:01:32.742Z,99884.19
2023-02-01T12:04:34.008Z,99873.00
2023-02-01T12:07:15.819Z,99877.38
2023-02-01T12:09:59.412Z,99874.81
2023-02-01T12:12:35.573Z,99891.66
2023-02-01T12:15:30.926Z,99885.50
2023-02-01T12:18:11.171Z,99882.88
2023-02-01T12:20:58.446Z,99879.31
2023-02-01T12:23:43.164Z,99874.13
2023-02-01T12:26:17.921Z,99878.59
2023-02-01T12:28:57.170Z,99876.06
2023-02-01T12:31:33.218Z,99862.19
2023-02-01T12:34:34.430Z,99854.34
2023-02-01T12:37:25.026Z,99847.38
2023-02-01T12:40:27.559Z,99841.22
2023-02-01T12:43:26.064Z,99855.44
2023-02-01T12:46:00.965Z,99853.72
2023-02-01T12:48:48.884Z,99844.88
2023-02-01T12:51:24.441Z,99843.09
2023-02-01T12:53:58.291Z,99842.38
2023-02-01T12:56:32.594Z,99846.09
2023-02-01T12:59:11.463Z,99840.88
2023-02-01T13:02:01.235Z,99843.53
2023-02-01T13:04:49.400Z,99831.28
2023-02-01T13:07:22.639Z,99827.72
2023-02-01T13:09:55.021Z,99826.88
2023-02-01T13:12:34.334Z,99823.47
2023-02-01T13:15:16.101Z,99839.28
2023-02-01T13:17:46.749Z,99819.09
2023-02-01T13:20:17.022Z,99812.91
2023-02-01T13:23:13.946Z,99822.44
2023-02-01T13:25:50.932Z,99817.16
2023-02-01T13:28:43.773Z,99817.03
2023-02-01T13:31:45.708Z,99811.72
2023-02-01T13:34:50.527Z,99809.88
2023-02-01T13:37:54.458Z,99810.75
2023-02-01T13:40:39.602Z,99805.59
2023-02-01T13:43:23.399Z,99802.88
2023-02-01T13:45:53.951Z,99812.53
2023-02-01T13:48:29.299Z,99802.81
2023-02-01T13:51:00.865Z,99821.22
2023-02-01T13:53:33.631Z,99808.88
2023-02-01T13:56:21.358Z,99804.44
2023-02-01T13:58:49.323Z,99800.88
2023-02-01T14:01:22.668Z,99806.91
2023-02-01T14:03:57.268Z,99817.53
2023-02-01T14:06:27.365Z,99825.38
2023-02-01T14:09:09.333Z,99828.88
2023-02-01T14:11:43.389Z,99835.88
2023-02-01T14:14:16.021Z,99815.69
2023-02-01T14:16:46.993Z,99834.16
2023-02-01T14:19:23.987Z,99814.75
2023-02-01T14:21:58.051Z,99843.91
2023-02-01T14:24:31.033Z,99837.88
2023-02-01T14:27:01.851Z,99849.38
2023-02-01T14:29:34.788Z,99855.66
2023-02-01T14:32:14.051Z,99860.22
2023-02-01T14:35:00.325Z,99864.22
2023-02-01T14:37:31.932Z,99853.44
2023-02-01T14:40:13.703Z,99874.78
2023-02-01T14:42:43.900Z,99876.66
2023-02-01T14:45:20.538Z,99877.59
2023-02-01T14:48:07.186Z,99876.69
2023-02-01T14:50:45.297Z,99890.81
2023-02-01T14:53:21.670Z,99869.69
2023-02-01T14:56:00.019Z,99864.38
2023-02-01T14:58:50.856Z,99882.75
2023-02-01T15:01:31.631Z,99897.56
2023-02-01T15:04:01.840Z,99887.91
2023-02-01T15:06:41.127Z,99897.56
2023-02-01T15:09:25.244Z,99894.94
2023-02-01T15:12:33.753Z,99894.03
2023-02-01T15:15:26.370Z,99897.44
2023-02-01T15:17:56.685Z,99885.97
2023-02-01T15:20:24.967Z,99893.78
2023-02-01T15:22:56.594Z,99896.34
2023-02-01T15:25:46.878Z,99907.66
2023-02-01T15:28:15.910Z,99878.59
2023-02-01T15:30:57.291Z,99901.41
2023-02-01T15:33:24.624Z,99911.91
2023-02-01T15:35:57.193Z,99898.72
2023-02-01T15:38:29.525Z,99907.53
2023-02-01T15:41:14.474Z,99900.47
2023-02-01T15:43:45.972Z,99907.47
2023-02-01T15:46:16.806Z,99910.97
2023-02-01T15:48:57.802Z,99923.28
2023-02-01T15:51:28.193Z,99916.22
2023-02-01T15:54:08.622Z,99912.69
2023-02-01T15:56:38.564Z,99921.44
2023-02-01T15:59:19.466Z,99917.91
2023-02-01T16:01:47.063Z,99916.97
2023-02-01T16:04:27.578Z,99925.78
2023-02-01T16:07:05.828Z,99929.28
2023-02-01T16:09:53.562Z,99931.88
2023-02-01T16:12:29.615Z,99933.66
2023-02-01T16:14:56.233Z,99939.78
2023-02-01T16:17:23.425Z,99945.91
2023-02-01T16:19:50.010Z,99949.47
2023-02-01T16:22:17.301Z,99944.19
2023-02-01T16:24:43.857Z,99949.47
2023-02-01T16:27:11.285Z,99952.09
2023-02-01T16:29:37.830Z,99958.28
2023-02-01T16:32:05.813Z,99961.72
2023-02-01T16:34:33.364Z,99961.78
2023-02-01T16:37:01.980Z,99964.44
2023-02-01T16:39:29.466Z,99968.78
2023-02-01T16:41:57.938Z,99974.06
2023-02-01T16:44:25.920Z,99974.03
2023-02-01T16:46:53.240Z,99981.09
2023-02-01T16:49:26.293Z,99989.81
2023-02-01T16:51:58.927Z,99990.66
2023-02-01T16:54:25.835Z,99991.53
2023-02-01T16:56:54.215Z,99989.75
2023-02-01T16:59:20.791Z,99989.75
2023-02-01T17:01:48.044Z,99996.75
2023-02-01T17:04:14.771Z,99995.03
2023-02-01T17:06:42.932Z,99993.28
2023-02-01T17:09:10.473Z,99990.59
2023-02-01T17:11:38.790Z,99990.66
2023-02-01T17:14:21.366Z,100007.28
2023-02-01T17:16:49.596Z,99991.59
2023-02-01T17:19:24.710Z,99994.28
2023-02-01T17:21:57.026Z,100003.94
2023-02-01T17:24:33.264Z,99992.63
2023-02-01T17:27:06.424Z,100004.09
2023-02-01T17:29:33.308Z,100004.13
2023-02-01T17:32:01.772Z,100014.75
2023-02-01T17:34:28.573Z,100004.28
2023-02-01T17:36:55.562Z,100008.69
2023-02-01T17:39:41.594Z,100016.56
2023-02-01T17:42:12.645Z,100025.44
2023-02-01T17:44:39.285Z,100018.38
2023-02-01T17:47:07.497Z,100011.38
2023-02-01T17:49:35.871Z,100014.94
2023-02-01T17:52:02.877Z,100028.13
2023-02-01T17:54:30.061Z,100029.03
2023-02-01T17:57:00.255Z,100019.47
2023-02-01T17:59:27.914Z,100023.81
2023-02-01T18:02:00.623Z,100032.63
2023-02-01T18:04:27.939Z,100033.56
2023-02-01T18:06:54.546Z,100029.19
2023-02-01T18:09:22.110Z,100030.97
2023-02-01T18:11:50.383Z,100026.59
2023-02-01T18:14:17.721Z,100031.84
2023-02-01T18:16:44.554Z,100018.72
2023-02-01T18:19:11.748Z,100023.13
2023-02-01T18:21:42.454Z,100021.41
2023-02-01T18:24:12.927Z,100029.31
2023-02-01T18:26:39.574Z,100020.59
2023-02-01T18:29:07.121Z,100030.25
2023-02-01T18:31:44.915Z,100029.41
2023-02-01T18:34:17.394Z,100025.97
2023-02-01T18:36:43.960Z,100023.34
2023-02-01T18:39:11.953Z,100030.34
2023-02-01T18:41:38.704Z,100042.63
2023-02-01T18:44:05.781Z,100039.09
2023-02-01T18:46:32.444Z,100041.72
2023-02-01T18:48:59.652Z,100032.91
2023-02-01T18:51:26.630Z,100032.91
2023-02-01T18:53:53.461Z,100039.09
2023-02-01T18:56:20.269Z,100032.91
2023-02-01T18:59:08.040Z,100041.72
2023-02-01T19:01:38.213Z,100047.00
2023-02-01T19:04:07.365Z,100058.41
2023-02-01T19:06:36.927Z,100052.22
2023-02-01T19:09:03.580Z,100057.44
2023-02-01T19:11:32.892Z,100060.94
2023-02-01T19:14:00.172Z,100060.06
2023-02-01T19:16:26.883Z,100067.09
2023-02-01T19:18:54.600Z,100060.94
2023-02-01T19:21:22.078Z,100068.84
2023-02-01T19:23:49.350Z,100070.56
2023-02-01T19:26:17.534Z,100074.06
2023-02-01T19:28:49.165Z,100075.78
2023-02-01T19:31:19.185Z,100076.69
2023-02-01T19:33:47.483Z,100074.00
2023-02-01T19:36:14.006Z,100083.63
2023-02-01T19:38:41.777Z,100085.38
2023-02-01T19:41:08.574Z,100085.38
2023-02-01T19:43:37.115Z,100088.00
2023-02-01T19:46:03.923Z,100083.59
2023-02-01T19:48:31.868Z,100080.09
2023-02-01T19:50:59.342Z,100094.06
2023-02-01T19:53:28.324Z,100090.56
2023-02-01T19:55:58.303Z,100087.03
2023-02-01T19:58:29.304Z,100076.50
2023-02-01T20:00:59.988Z,100084.34
2023-02-01T20:03:28.066Z,100079.94
2023-02-01T20:05:56.632Z,100076.38
2023-02-01T20:08:24.367Z,100076.44
2023-02-01T20:10:52.333Z,100083.41
2023-02-01T20:13:20.368Z,100081.66
2023-02-01T20:15:47.888Z,100074.66
2023-02-01T20:18:15.573Z,100077.31
2023-02-01T20:20:42.963Z,100067.72
2023-02-01T20:23:10.254Z,100080.84
2023-02-01T20:25:39.135Z,100081.75
2023-02-01T20:28:07.409Z,100085.31
2023-02-01T20:30:39.779Z,100091.41
2023-02-01T20:33:08.408Z,100087.06
2023-02-01T20:35:35.162Z,100081.00
2023-02-01T20:38:05.064Z,100088.00
2023-02-01T20:40:42.280Z,100092.47
2023-02-01T20:43:10.166Z,100082.84
2023-02-01T20:45:46.062Z,100093.34
2023-02-01T20:48:13.430Z,100090.72
2023-02-01T20:50:40.498Z,100084.69
2023-02-01T20:53:12.680Z,100091.69
2023-02-01T20:55:40.096Z,100080.28
2023-02-01T20:58:07.934Z,100084.75
2023-02-01T21:00:35.219Z,100097.78
2023-02-01T21:03:04.708Z,100096.09
2023-02-01T21:05:40.265Z,100090.84
2023-02-01T21:08:09.121Z,100096.09
2023-02-01T21:10:39.914Z,100096.09
2023-02-01T21:13:27.847Z,100102.28
2023-02-01T21:16:09.187Z,100103.19
2023-02-01T21:18:36.183Z,100114.56
2023-02-01T21:21:14.660Z,100105.81
2023-02-01T21:23:49.514Z,100118.13
2023-02-01T21:26:27.499Z,100111.13
2023-02-01T21:28:58.032Z,100113.72
